createdAt,value
2022-09-06T00:00:10.007Z,23.45
2022-09-06T00:01:17.311Z,23.47
2022-09-06T00:02:19.353Z,23.47
2022-09-06T00:03:21.255Z,23.44
2022-09-06T00:04:23.178Z,23.44
2022-09-06T00:05:24.959Z,23.44
2022-09-06T00:06:26.806Z,23.43
2022-09-06T00:07:28.798Z,23.42
2022-09-06T00:08:30.507Z,23.43
2022-09-06T00:09:32.283Z,23.28
2022-09-06T00:10:34.530Z,23.41
2022-09-06T00:11:36.892Z,23.35
2022-09-06T00:12:38.746Z,23.36
2022-09-06T00:13:40.743Z,23.41
2022-09-06T00:14:42.615Z,23.41
2022-09-06T00:15:44.396Z,23.40
2022-09-06T00:16:46.931Z,23.40
2022-09-06T00:17:49.103Z,23.39
2022-09-06T00:18:54.994Z,23.39
2022-09-06T00:19:56.834Z,23.40
2022-09-06T00:20:58.599Z,23.39
2022-09-06T00:22:00.409Z,23.34
2022-09-06T00:23:05.028Z,23.37
2022-09-06T00:24:06.931Z,23.38
2022-09-06T00:25:09.467Z,23.38
2022-09-06T00:27:13.066Z,23.35
2022-09-06T00:28:16.199Z,23.35
2022-09-06T00:29:17.985Z,23.35
2022-09-06T00:30:19.706Z,23.34
2022-09-06T00:31:24.310Z,23.34
2022-09-06T00:32:26.609Z,23.36
2022-09-06T00:33:28.444Z,23.35
2022-09-06T00:34:30.293Z,23.27
2022-09-06T00:35:32.259Z,23.34
2022-09-06T00:36:34.094Z,23.33
2022-09-06T00:37:35.862Z,23.33
2022-09-06T00:38:38.917Z,23.33
2022-09-06T00:39:40.688Z,23.33
2022-09-06T00:40:42.606Z,23.32
2022-09-06T00:41:44.595Z,23.27
2022-09-06T00:42:46.339Z,23.29
2022-09-06T00:43:48.170Z,23.32
2022-09-06T00:44:50.601Z,23.23
2022-09-06T00:45:53.906Z,23.31
2022-09-06T00:46:56.048Z,23.31
2022-09-06T00:47:59.850Z,23.20
2022-09-06T00:49:15.978Z,23.23
2022-09-06T00:50:19.251Z,23.33
2022-09-06T00:51:23.209Z,23.13
2022-09-06T00:52:27.458Z,23.26
2022-09-06T00:53:31.037Z,23.30
2022-09-06T00:54:33.215Z,23.15
2022-09-06T00:55:35.119Z,23.21
2022-09-06T00:56:41.154Z,23.27
2022-09-06T00:57:43.522Z,23.22
2022-09-06T00:58:46.030Z,23.27
2022-09-06T00:59:49.008Z,23.26
2022-09-06T01:00:50.966Z,23.17
2022-09-06T01:01:53.379Z,23.26
2022-09-06T01:02:55.278Z,23.25
2022-09-06T01:03:57.357Z,23.16
2022-09-06T01:04:59.502Z,23.24
2022-09-06T01:06:16.205Z,23.24
2022-09-06T01:07:23.879Z,23.27
2022-09-06T01:08:38.620Z,23.27
2022-09-06T01:10:08.755Z,23.30
2022-09-06T01:11:34.114Z,23.33
2022-09-06T01:13:08.892Z,23.36
2022-09-06T01:14:44.724Z,23.39
2022-09-06T01:16:03.241Z,23.36
2022-09-06T01:17:43.437Z,23.39
2022-09-06T01:19:26.302Z,23.36
2022-09-06T01:20:41.970Z,23.38
2022-09-06T01:22:09.552Z,23.35
2022-09-06T01:23:52.739Z,23.37
2022-09-06T01:25:12.951Z,23.34
2022-09-06T01:26:59.342Z,23.35
2022-09-06T01:28:36.120Z,23.36
2022-09-06T01:29:43.543Z,23.33
2022-09-06T01:30:53.930Z,23.27
2022-09-06T01:33:17.375Z,23.19
2022-09-06T01:34:28.962Z,23.19
2022-09-06T01:35:40.406Z,23.20
2022-09-06T01:37:10.241Z,23.19
2022-09-06T01:38:13.309Z,23.20
2022-09-06T01:39:25.380Z,23.18
2022-09-06T01:40:28.250Z,23.17
2022-09-06T01:41:30.882Z,23.13
2022-09-06T01:42:34.739Z,23.11
2022-09-06T01:43:40.674Z,23.10
2022-09-06T01:44:53.998Z,23.13
2022-09-06T01:46:17.798Z,23.17
2022-09-06T01:47:35.598Z,23.15
2022-09-06T01:48:50.841Z,23.17
2022-09-06T01:50:23.222Z,23.18
2022-09-06T01:53:03.159Z,23.17
2022-09-06T01:54:29.423Z,23.21
2022-09-06T01:55:46.475Z,23.19
2022-09-06T01:57:04.121Z,23.17
2022-09-06T01:58:27.492Z,23.14
2022-09-06T01:59:49.519Z,23.20
2022-09-06T02:01:04.066Z,23.16
2022-09-06T02:02:13.193Z,23.14
2022-09-06T02:03:32.927Z,23.14
2022-09-06T02:04:44.978Z,23.12
2022-09-06T02:05:53.381Z,23.08
2022-09-06T02:07:07.911Z,23.10
2022-09-06T02:08:39.292Z,23.16
2022-09-06T02:09:45.303Z,23.13
2022-09-06T02:11:07.588Z,23.00
2022-09-06T02:12:13.789Z,23.05
2022-09-06T02:13:18.311Z,23.04
2022-09-06T02:14:30.416Z,22.97
2022-09-06T02:15:39.520Z,23.04
2022-09-06T02:16:45.008Z,23.05
2022-09-06T02:17:57.251Z,22.99
2022-09-06T02:19:06.019Z,23.05
2022-09-06T02:20:18.971Z,23.01
2022-09-06T02:21:26.948Z,22.97
2022-09-06T02:22:34.210Z,23.04
2022-09-06T02:23:40.452Z,22.89
2022-09-06T02:24:44.797Z,23.03
2022-09-06T02:26:05.202Z,23.02
2022-09-06T02:27:07.930Z,23.04
2022-09-06T02:28:10.904Z,23.03
2022-09-06T02:29:13.728Z,22.99
2022-09-06T02:30:15.900Z,23.00
2022-09-06T02:31:41.695Z,22.98
2022-09-06T02:32:54.100Z,23.02
2022-09-06T02:33:56.766Z,23.03
2022-09-06T02:34:58.799Z,22.95
2022-09-06T02:36:06.458Z,22.97
2022-09-06T02:37:08.667Z,22.96
2022-09-06T02:38:10.823Z,22.98
2022-09-06T02:39:13.140Z,22.98
2022-09-06T02:40:14.970Z,22.97
2022-09-06T02:41:22.676Z,22.96
2022-09-06T02:42:25.123Z,22.94
2022-09-06T02:43:27.210Z,22.94
2022-09-06T02:44:28.997Z,22.90
2022-09-06T02:45:30.908Z,22.93
2022-09-06T02:46:32.662Z,22.92
2022-09-06T02:47:34.701Z,22.89
2022-09-06T02:48:36.585Z,22.96
2022-09-06T02:49:38.456Z,22.94
2022-09-06T02:50:40.278Z,22.95
2022-09-06T02:51:42.098Z,22.95
2022-09-06T02:52:43.867Z,22.95
2022-09-06T02:53:45.757Z,22.92
2022-09-06T02:54:47.473Z,22.93
2022-09-06T02:55:49.215Z,22.94
2022-09-06T02:56:52.481Z,22.90
2022-09-06T02:57:54.418Z,22.94
2022-09-06T02:58:56.124Z,22.88
2022-09-06T02:59:57.858Z,22.89
2022-09-06T03:00:59.737Z,22.94
2022-09-06T03:02:01.576Z,22.93
2022-09-06T03:03:03.798Z,22.93
2022-09-06T03:04:05.674Z,22.93
2022-09-06T03:05:07.710Z,22.90
2022-09-06T03:06:09.552Z,22.93
2022-09-06T03:07:11.357Z,22.87
2022-09-06T03:08:13.094Z,22.93
2022-09-06T03:09:14.877Z,22.93
2022-09-06T03:10:17.355Z,22.92
2022-09-06T03:11:19.104Z,22.88
2022-09-06T03:12:20.854Z,22.72
2022-09-06T03:13:24.485Z,22.92
2022-09-06T03:14:26.228Z,22.90
2022-09-06T03:15:27.979Z,22.92
2022-09-06T03:16:29.907Z,22.86
2022-09-06T03:17:31.764Z,22.91
2022-09-06T03:18:33.546Z,22.88
2022-09-06T03:19:35.349Z,22.89
2022-09-06T03:20:37.418Z,22.90
2022-09-06T03:21:39.292Z,22.90
2022-09-06T03:22:41.840Z,22.91
2022-09-06T03:23:43.616Z,22.91
2022-09-06T03:24:45.331Z,22.81
2022-09-06T03:25:47.122Z,22.92
2022-09-06T03:26:48.858Z,22.86
2022-09-06T03:27:50.571Z,22.90
2022-09-06T03:28:52.282Z,22.89
2022-09-06T03:29:54.014Z,22.90
2022-09-06T03:30:55.929Z,22.90
2022-09-06T03:31:57.957Z,22.88
2022-09-06T03:33:02.588Z,22.89
2022-09-06T03:34:09.068Z,22.91
2022-09-06T03:35:12.665Z,22.92
2022-09-06T03:36:15.774Z,22.91
2022-09-06T03:37:19.466Z,22.90
2022-09-06T03:38:22.180Z,22.90
2022-09-06T03:39:24.082Z,22.83
2022-09-06T03:40:26.006Z,22.88
2022-09-06T03:41:27.706Z,22.88
2022-09-06T03:42:29.760Z,22.88
2022-09-06T03:43:32.291Z,22.81
2022-09-06T03:44:34.176Z,22.84
2022-09-06T03:45:35.954Z,22.82
2022-09-06T03:46:37.888Z,22.87
2022-09-06T03:47:39.788Z,22.79
2022-09-06T03:48:41.537Z,22.85
2022-09-06T03:49:43.287Z,22.83
2022-09-06T03:50:46.793Z,22.85
2022-09-06T03:51:48.582Z,22.80
2022-09-06T03:52:50.439Z,22.75
2022-09-06T03:53:52.247Z,22.79
2022-09-06T03:54:53.954Z,22.85
2022-09-06T03:55:58.178Z,22.84
2022-09-06T03:56:59.926Z,22.86
2022-09-06T03:58:01.659Z,22.78
2022-09-06T03:59:03.571Z,22.78
2022-09-06T04:00:05.743Z,22.85
2022-09-06T04:01:13.168Z,22.86
2022-09-06T04:02:15.019Z,22.85
2022-09-06T04:03:19.511Z,22.78
2022-09-06T04:04:21.265Z,22.80
2022-09-06T04:05:23.062Z,22.77
2022-09-06T04:06:24.770Z,22.78
2022-09-06T04:07:26.542Z,22.83
2022-09-06T04:08:28.666Z,22.78
2022-09-06T04:09:30.438Z,22.83
2022-09-06T04:10:33.013Z,22.61
2022-09-06T04:11:34.756Z,22.79
2022-09-06T04:12:36.651Z,22.79
2022-09-06T04:13:38.811Z,22.76
2022-09-06T04:14:40.652Z,22.82
2022-09-06T04:15:46.303Z,22.80
2022-09-06T04:16:48.120Z,22.82
2022-09-06T04:17:50.026Z,22.80
2022-09-06T04:18:52.007Z,22.76
2022-09-06T04:19:53.704Z,22.73
2022-09-06T04:20:56.611Z,22.80
2022-09-06T04:21:58.327Z,22.73
2022-09-06T04:23:00.177Z,22.61
2022-09-06T04:24:02.090Z,22.72
2022-09-06T04:25:04.526Z,22.78
2022-09-06T04:26:06.465Z,22.71
2022-09-06T04:27:08.328Z,22.71
2022-09-06T04:28:10.050Z,22.78
2022-09-06T04:29:11.867Z,22.69
2022-09-06T04:30:13.637Z,22.77
2022-09-06T04:31:15.376Z,22.76
2022-09-06T04:32:17.242Z,22.77
2022-09-06T04:33:18.966Z,22.74
2022-09-06T04:34:20.783Z,22.69
2022-09-06T04:35:22.832Z,22.73
2022-09-06T04:36:24.548Z,22.72
2022-09-06T04:37:26.395Z,22.75
2022-09-06T04:38:29.845Z,22.74
2022-09-06T04:39:31.670Z,22.68
2022-09-06T04:40:33.531Z,22.77
2022-09-06T04:41:35.465Z,22.75
2022-09-06T04:42:37.179Z,22.74
2022-09-06T04:43:39.206Z,22.76
2022-09-06T04:44:41.562Z,22.74
2022-09-06T04:45:44.711Z,22.60
2022-09-06T04:46:46.478Z,22.75
2022-09-06T04:47:48.214Z,22.68
2022-09-06T04:48:50.049Z,22.75
2022-09-06T04:49:52.152Z,22.72
2022-09-06T04:50:53.983Z,22.72
2022-09-06T04:51:55.862Z,22.73
2022-09-06T04:52:57.569Z,22.75
2022-09-06T04:53:59.283Z,22.74
2022-09-06T04:55:01.007Z,22.74
2022-09-06T04:56:03.034Z,22.74
2022-09-06T04:57:05.052Z,22.74
2022-09-06T04:58:06.847Z,22.73
2022-09-06T04:59:08.599Z,22.69
2022-09-06T05:00:10.700Z,22.68
2022-09-06T05:01:12.809Z,22.73
2022-09-06T05:02:14.619Z,22.73
2022-09-06T05:03:16.372Z,22.73
2022-09-06T05:04:18.087Z,22.70
2022-09-06T05:05:20.103Z,22.71
2022-09-06T05:06:24.570Z,22.72
2022-09-06T05:07:26.383Z,22.73
2022-09-06T05:08:28.296Z,22.71
2022-09-06T05:09:30.203Z,22.67
2022-09-06T05:10:31.966Z,22.74
2022-09-06T05:11:34.096Z,22.66
2022-09-06T05:12:35.923Z,22.79
2022-09-06T05:13:38.124Z,22.78
2022-09-06T05:14:39.970Z,22.82
2022-09-06T05:15:41.711Z,22.79
2022-09-06T05:16:45.492Z,22.85
2022-09-06T05:17:47.496Z,22.88
2022-09-06T05:18:49.272Z,22.89
2022-09-06T05:19:51.014Z,22.97
2022-09-06T05:20:53.643Z,23.01
2022-09-06T05:21:55.409Z,23.05
2022-09-06T05:22:57.368Z,23.08
2022-09-06T05:23:59.144Z,23.10
2022-09-06T05:25:00.838Z,23.15
2022-09-06T05:26:03.752Z,23.15
2022-09-06T05:27:05.655Z,23.13
2022-09-06T05:28:07.779Z,23.20
2022-09-06T05:29:09.563Z,23.29
2022-09-06T05:30:11.967Z,23.30
2022-09-06T05:31:25.891Z,23.36
2022-09-06T05:32:27.725Z,23.42
2022-09-06T05:33:29.470Z,23.40
2022-09-06T05:34:31.188Z,23.42
2022-09-06T05:35:32.986Z,23.50
2022-09-06T05:36:35.557Z,23.50
2022-09-06T05:37:37.273Z,23.57
2022-09-06T05:38:38.978Z,23.54
2022-09-06T05:39:40.806Z,23.59
2022-09-06T05:40:42.634Z,23.65
2022-09-06T05:41:44.474Z,23.63
2022-09-06T05:42:46.272Z,23.64
2022-09-06T05:43:48.237Z,23.72
2022-09-06T05:44:50.159Z,23.74
2022-09-06T05:45:51.950Z,23.77
2022-09-06T05:46:53.732Z,23.76
2022-09-06T05:47:55.591Z,23.74
2022-09-06T05:49:01.503Z,23.77
2022-09-06T05:50:03.572Z,23.88
2022-09-06T05:51:12.740Z,23.88
2022-09-06T05:52:14.703Z,23.91
2022-09-06T05:53:16.497Z,23.89
2022-09-06T05:54:18.272Z,23.94
2022-09-06T05:55:20.005Z,23.95
2022-09-06T05:56:22.633Z,23.99
2022-09-06T05:57:24.508Z,23.99
2022-09-06T05:58:26.346Z,24.01
2022-09-06T05:59:28.346Z,24.00
2022-09-06T06:00:30.075Z,23.98
2022-09-06T06:01:31.924Z,24.04
2022-09-06T06:02:33.787Z,24.06
2022-09-06T06:03:35.658Z,24.07
2022-09-06T06:04:37.378Z,24.08
2022-09-06T06:05:39.595Z,24.05
2022-09-06T06:06:41.342Z,24.09
2022-09-06T06:07:43.358Z,24.10
2022-09-06T06:08:45.267Z,24.06
2022-09-06T06:09:47.011Z,24.12
2022-09-06T06:10:48.953Z,24.12
2022-09-06T06:11:50.709Z,24.10
2022-09-06T06:12:52.427Z,24.12
2022-09-06T06:13:54.471Z,24.10
2022-09-06T06:14:56.212Z,24.14
2022-09-06T06:15:58.425Z,24.10
2022-09-06T06:17:00.376Z,24.15
2022-09-06T06:18:02.221Z,24.13
2022-09-06T06:19:04.087Z,24.08
2022-09-06T06:20:06.566Z,24.15
2022-09-06T06:21:16.502Z,24.09
2022-09-06T06:22:18.399Z,24.20
2022-09-06T06:23:20.114Z,24.18
2022-09-06T06:24:22.627Z,24.19
2022-09-06T06:25:26.314Z,24.12
2022-09-06T06:26:30.087Z,24.20
2022-09-06T06:27:34.102Z,24.20
2022-09-06T06:28:36.892Z,24.19
2022-09-06T06:29:38.668Z,24.14
2022-09-06T06:30:40.426Z,24.22
2022-09-06T06:31:42.219Z,24.21
2022-09-06T06:32:44.179Z,24.22
2022-09-06T06:33:46.457Z,24.22
2022-09-06T06:34:48.422Z,24.22
2022-09-06T06:36:01.475Z,24.22
2022-09-06T06:37:03.334Z,24.25
2022-09-06T06:38:05.102Z,24.16
2022-09-06T06:39:08.670Z,24.24
2022-09-06T06:40:10.729Z,24.16
2022-09-06T06:41:15.639Z,24.20
2022-09-06T06:42:17.362Z,24.21
2022-09-06T06:43:27.668Z,24.19
2022-09-06T06:44:29.374Z,24.24
2022-09-06T06:45:31.755Z,24.16
2022-09-06T06:46:36.304Z,24.05
2022-09-06T06:47:38.059Z,24.26
2022-09-06T06:48:41.424Z,24.25
2022-09-06T06:49:43.220Z,24.19
2022-09-06T06:50:45.016Z,24.25
2022-09-06T06:51:47.091Z,24.25
2022-09-06T06:52:48.899Z,24.22
2022-09-06T06:53:51.616Z,24.20
2022-09-06T06:54:53.338Z,24.24
2022-09-06T06:55:55.409Z,24.23
2022-09-06T06:56:57.150Z,24.21
2022-09-06T06:58:02.144Z,24.20
2022-09-06T06:59:05.967Z,24.27
2022-09-06T07:00:08.428Z,24.27
2022-09-06T07:01:10.724Z,24.21
2022-09-06T07:02:15.778Z,24.27
2022-09-06T07:03:18.405Z,24.28
2022-09-06T07:04:20.132Z,24.28
2022-09-06T07:08:14.174Z,24.33
2022-09-06T07:09:18.382Z,24.34
2022-09-06T07:10:35.603Z,24.30
2022-09-06T07:11:38.180Z,24.31
2022-09-06T07:12:40.015Z,24.30
2022-09-06T07:13:42.278Z,24.32
2022-09-06T07:14:44.029Z,24.27
2022-09-06T07:15:45.878Z,24.29
2022-09-06T07:16:47.778Z,24.30
2022-09-06T07:17:49.621Z,24.29
2022-09-06T07:18:52.775Z,24.30
2022-09-06T07:22:40.591Z,24.40
2022-09-06T07:25:06.281Z,24.40
2022-09-06T07:26:08.830Z,24.36
2022-09-06T07:28:32.359Z,24.39
2022-09-06T07:29:34.960Z,24.38
2022-09-06T07:30:37.495Z,24.34
2022-09-06T07:33:01.065Z,24.35
2022-09-06T07:34:05.165Z,24.34
2022-09-06T07:35:07.456Z,24.38
2022-09-06T07:36:09.407Z,24.36
2022-09-06T07:37:11.139Z,24.38
2022-09-06T07:38:12.863Z,24.37
2022-09-06T07:39:14.624Z,24.38
2022-09-06T07:40:16.375Z,24.32
2022-09-06T07:41:19.291Z,24.38
2022-09-06T07:42:21.209Z,24.38
2022-09-06T07:43:23.283Z,24.30
2022-09-06T07:44:24.999Z,24.32
2022-09-06T07:45:27.059Z,24.39
2022-09-06T07:46:28.868Z,24.40
2022-09-06T07:48:52.342Z,24.45
2022-09-06T07:51:21.311Z,24.48
2022-09-06T07:53:57.929Z,24.49
2022-09-06T07:55:09.187Z,24.55
2022-09-06T07:56:12.639Z,24.50
2022-09-06T07:57:14.564Z,24.50
2022-09-06T07:58:16.352Z,24.48
2022-09-06T07:59:18.315Z,24.44
2022-09-06T08:00:20.062Z,24.44
2022-09-06T08:01:38.456Z,24.50
2022-09-06T08:02:41.045Z,24.52
2022-09-06T08:03:43.527Z,24.43
2022-09-06T08:04:49.748Z,24.49
2022-09-06T08:06:09.085Z,24.50
2022-09-06T08:09:54.930Z,24.59
2022-09-06T08:10:56.657Z,24.57
2022-09-06T08:11:58.914Z,24.52
2022-09-06T08:13:00.651Z,24.54
2022-09-06T08:14:04.987Z,24.54
2022-09-06T08:15:07.381Z,24.52
2022-09-06T08:16:11.435Z,24.54
2022-09-06T08:17:13.307Z,24.55
2022-09-06T08:18:15.034Z,24.50
2022-09-06T08:19:18.413Z,24.55
2022-09-06T08:20:20.285Z,24.53
2022-09-06T08:21:23.868Z,24.55
2022-09-06T08:22:25.595Z,24.57
2022-09-06T08:23:27.815Z,24.54
2022-09-06T08:24:29.582Z,24.57
2022-09-06T08:25:31.295Z,24.57
2022-09-06T08:26:35.034Z,24.57
2022-09-06T08:27:36.883Z,24.57
2022-09-06T08:28:38.704Z,24.53
2022-09-06T08:29:40.435Z,24.54
2022-09-06T08:30:42.227Z,24.59
2022-09-06T08:31:45.280Z,24.59
2022-09-06T08:32:47.130Z,24.60
2022-09-06T08:33:49.026Z,24.60
2022-09-06T08:34:50.862Z,24.60
2022-09-06T08:35:56.691Z,24.60
2022-09-06T08:36:58.449Z,24.58
2022-09-06T08:38:00.190Z,24.62
2022-09-06T08:39:04.683Z,24.61
2022-09-06T08:40:06.974Z,24.60
2022-09-06T08:41:51.546Z,24.70
2022-09-06T08:42:53.346Z,24.75
2022-09-06T08:45:23.297Z,24.62
2022-09-06T08:46:34.114Z,24.72
2022-09-06T08:47:36.075Z,24.72
2022-09-06T08:48:39.981Z,24.69
2022-09-06T08:49:46.767Z,24.70
2022-09-06T08:51:07.743Z,24.63
2022-09-06T08:52:34.319Z,24.76
2022-09-06T08:53:41.999Z,24.78
2022-09-06T08:55:11.199Z,24.70
2022-09-06T08:56:23.299Z,24.74
2022-09-06T08:57:40.503Z,24.78
2022-09-06T08:59:05.648Z,24.82
2022-09-06T09:00:13.359Z,24.80
2022-09-06T09:01:19.614Z,24.73
2022-09-06T09:02:22.624Z,24.77
2022-09-06T09:03:39.372Z,24.75
2022-09-06T09:05:04.419Z,24.81
2022-09-06T09:06:10.208Z,24.77
2022-09-06T09:07:43.871Z,24.82
2022-09-06T09:09:15.110Z,24.90
2022-09-06T09:10:26.863Z,24.84
2022-09-06T09:11:29.970Z,24.79
2022-09-06T09:12:36.907Z,24.74
2022-09-06T09:13:54.666Z,24.81
2022-09-06T09:15:06.079Z,24.77
2022-09-06T09:16:08.129Z,24.75
2022-09-06T09:17:20.379Z,24.72
2022-09-06T09:18:34.969Z,24.80
2022-09-06T09:19:42.366Z,24.80
2022-09-06T09:20:44.258Z,24.77
2022-09-06T09:21:49.258Z,24.78
2022-09-06T09:22:51.067Z,24.70
2022-09-06T09:23:58.955Z,24.73
2022-09-06T09:25:02.433Z,24.73
2022-09-06T09:26:15.522Z,24.64
2022-09-06T09:27:22.247Z,24.74
2022-09-06T09:28:24.762Z,24.77
2022-09-06T09:29:29.459Z,24.81
2022-09-06T09:31:07.152Z,24.89
2022-09-06T09:32:09.263Z,24.81
2022-09-06T09:33:32.783Z,24.89
2022-09-06T09:34:37.807Z,24.88
2022-09-06T09:35:42.492Z,24.78
2022-09-06T09:38:23.143Z,24.83
2022-09-06T09:39:35.927Z,24.84
2022-09-06T09:40:42.804Z,24.85
2022-09-06T09:41:50.833Z,24.87
2022-09-06T09:42:55.182Z,24.73
2022-09-06T09:44:16.327Z,24.87
2022-09-06T09:45:20.979Z,24.89
2022-09-06T09:46:22.794Z,24.89
2022-09-06T09:47:34.258Z,24.87
2022-09-06T09:48:36.453Z,24.90
2022-09-06T09:49:38.179Z,24.82
2022-09-06T09:50:39.937Z,24.81
2022-09-06T09:51:45.339Z,24.85
2022-09-06T09:52:47.050Z,24.88
2022-09-06T09:54:10.803Z,24.91
2022-09-06T09:55:12.585Z,24.93
2022-09-06T09:56:15.539Z,24.91
2022-09-06T09:57:18.804Z,24.90
2022-09-06T09:58:33.591Z,24.85
2022-09-06T09:59:43.864Z,24.92
2022-09-06T10:00:45.706Z,24.92
2022-09-06T10:01:47.619Z,24.86
2022-09-06T10:02:49.556Z,24.85
2022-09-06T10:05:15.982Z,24.96
2022-09-06T10:07:52.861Z,24.99
2022-09-06T10:08:55.350Z,24.94
2022-09-06T10:10:06.119Z,24.95
2022-09-06T10:11:13.007Z,24.96
2022-09-06T10:12:32.959Z,24.97
2022-09-06T10:13:34.698Z,24.94
2022-09-06T10:14:48.874Z,24.91
2022-09-06T10:15:51.996Z,24.93
2022-09-06T10:16:54.362Z,24.90
2022-09-06T10:17:56.134Z,24.94
2022-09-06T10:18:57.990Z,24.88
2022-09-06T10:20:11.728Z,24.93
2022-09-06T10:21:22.493Z,24.97
2022-09-06T10:22:27.382Z,24.99
2022-09-06T10:25:38.631Z,25.10
2022-09-06T10:26:51.590Z,25.04
2022-09-06T10:28:14.222Z,25.04
2022-09-06T10:29:27.092Z,25.01
2022-09-06T10:30:30.619Z,25.00
2022-09-06T10:31:43.496Z,25.02
2022-09-06T10:33:11.605Z,25.02
2022-09-06T10:34:16.845Z,25.05
2022-09-06T10:35:23.950Z,25.02
2022-09-06T10:36:37.143Z,25.03
2022-09-06T10:37:57.431Z,25.07
2022-09-06T10:39:04.367Z,25.05
2022-09-06T10:40:09.975Z,25.04
2022-09-06T10:41:11.723Z,25.03
2022-09-06T10:42:13.405Z,25.03
2022-09-06T10:43:19.243Z,25.01
2022-09-06T10:44:54.791Z,25.06
2022-09-06T10:46:11.689Z,25.10
2022-09-06T10:47:16.890Z,25.08
2022-09-06T10:48:31.344Z,25.11
2022-09-06T10:49:35.205Z,25.10
2022-09-06T10:50:39.555Z,24.91
2022-09-06T10:51:57.174Z,25.09
2022-09-06T10:53:09.070Z,25.09
2022-09-06T10:54:13.382Z,25.12
2022-09-06T10:55:19.540Z,25.09
2022-09-06T10:56:38.922Z,25.09
2022-09-06T10:59:40.372Z,25.23
2022-09-06T11:00:49.249Z,25.22
2022-09-06T11:02:00.047Z,25.21
2022-09-06T11:06:11.357Z,25.25
2022-09-06T11:07:30.131Z,25.24
2022-09-06T11:09:08.335Z,25.16
2022-09-06T11:10:30.418Z,25.27
2022-09-06T11:11:40.608Z,25.26
2022-09-06T11:13:01.274Z,25.26
2022-09-06T11:14:12.880Z,25.24
2022-09-06T11:15:15.641Z,25.23
2022-09-06T11:16:27.238Z,25.20
2022-09-06T11:17:38.547Z,25.20
2022-09-06T11:18:51.447Z,25.16
2022-09-06T11:20:11.603Z,25.23
2022-09-06T11:21:17.479Z,25.24
2022-09-06T11:22:50.294Z,25.28
2022-09-06T11:23:57.324Z,25.27
2022-09-06T11:24:59.019Z,25.25
2022-09-06T11:26:41.699Z,25.25
2022-09-06T11:27:47.892Z,25.26
2022-09-06T11:28:55.969Z,25.24
2022-09-06T11:30:01.766Z,25.24
2022-09-06T11:31:05.773Z,25.17
2022-09-06T11:32:35.612Z,25.27
2022-09-06T11:33:40.023Z,25.23
2022-09-06T11:34:53.735Z,25.20
2022-09-06T11:36:20.257Z,25.31
2022-09-06T11:37:28.508Z,25.28
2022-09-06T11:38:31.007Z,25.23
2022-09-06T11:41:02.687Z,25.29
2022-09-06T11:42:09.555Z,25.21
2022-09-06T11:43:15.405Z,25.26
2022-09-06T11:44:54.231Z,25.29
2022-09-06T11:45:56.158Z,25.32
2022-09-06T11:46:59.074Z,25.24
2022-09-06T11:48:23.622Z,25.31
2022-09-06T11:49:33.481Z,25.25
2022-09-06T11:50:58.696Z,25.35
2022-09-06T11:52:01.239Z,25.34
2022-09-06T11:53:18.357Z,25.33
2022-09-06T11:54:23.003Z,25.31
2022-09-06T11:55:36.403Z,25.07
2022-09-06T11:56:50.699Z,25.26
2022-09-06T11:57:58.172Z,25.31
2022-09-06T11:59:22.357Z,25.30
2022-09-06T12:00:25.067Z,25.34
2022-09-06T12:01:34.630Z,25.33
2022-09-06T12:02:41.522Z,25.28
2022-09-06T12:05:07.659Z,25.38
2022-09-06T12:06:21.415Z,25.36
2022-09-06T12:07:23.284Z,25.32
2022-09-06T12:08:33.597Z,25.22
2022-09-06T12:09:38.211Z,25.33
2022-09-06T12:10:40.019Z,25.33
2022-09-06T12:11:45.066Z,25.31
2022-09-06T12:12:50.025Z,25.31
2022-09-06T12:13:56.702Z,25.28
2022-09-06T12:14:58.615Z,25.34
2022-09-06T12:16:01.082Z,25.32
2022-09-06T12:17:05.295Z,25.33
2022-09-06T12:18:07.088Z,25.33
2022-09-06T12:19:08.858Z,25.30
2022-09-06T12:20:11.334Z,25.34
2022-09-06T12:21:40.744Z,25.40
2022-09-06T12:22:42.618Z,25.41
2022-09-06T12:23:44.614Z,25.38
2022-09-06T12:24:46.431Z,25.37
2022-09-06T12:25:53.130Z,25.36
2022-09-06T12:27:15.878Z,25.39
2022-09-06T12:28:26.692Z,25.38
2022-09-06T12:29:29.103Z,25.42
2022-09-06T12:30:37.201Z,25.39
2022-09-06T12:31:42.498Z,25.39
2022-09-06T12:32:49.707Z,25.39
2022-09-06T12:33:52.758Z,25.40
2022-09-06T12:36:24.237Z,25.41
2022-09-06T12:37:37.304Z,25.44
2022-09-06T12:38:39.116Z,25.46
2022-09-06T12:39:57.615Z,25.44
2022-09-06T12:41:01.245Z,25.37
2022-09-06T12:42:07.366Z,25.43
2022-09-06T12:43:10.910Z,25.40
2022-09-06T12:44:14.819Z,25.43
2022-09-06T12:45:19.176Z,25.41
2022-09-06T12:46:21.041Z,25.43
2022-09-06T12:47:29.183Z,25.37
2022-09-06T12:48:39.195Z,25.42
2022-09-06T12:49:41.463Z,25.44
2022-09-06T12:50:43.482Z,25.30
2022-09-06T12:51:45.628Z,25.38
2022-09-06T12:52:59.372Z,25.38
2022-09-06T12:54:05.638Z,25.39
2022-09-06T12:55:35.239Z,25.39
2022-09-06T12:56:37.347Z,25.50
2022-09-06T12:57:47.581Z,25.47
2022-09-06T12:58:49.442Z,25.41
2022-09-06T12:59:54.103Z,25.45
2022-09-06T13:01:03.767Z,25.45
2022-09-06T13:02:11.956Z,25.44
2022-09-06T13:03:32.209Z,25.48
2022-09-06T13:05:02.755Z,25.55
2022-09-06T13:06:06.496Z,25.56
2022-09-06T13:07:15.551Z,25.52
2022-09-06T13:08:26.527Z,25.44
2022-09-06T13:09:30.024Z,25.49
2022-09-06T13:10:32.279Z,25.46
2022-09-06T13:11:38.588Z,25.46
2022-09-06T13:12:44.157Z,25.42
2022-09-06T13:13:49.054Z,25.49
2022-09-06T13:14:54.091Z,25.50
2022-09-06T13:15:56.173Z,25.44
2022-09-06T13:16:58.121Z,25.49
2022-09-06T13:18:31.907Z,25.54
2022-09-06T13:19:35.787Z,25.51
2022-09-06T13:20:37.571Z,25.51
2022-09-06T13:21:41.541Z,25.53
2022-09-06T13:22:49.407Z,25.51
2022-09-06T13:23:51.153Z,25.46
2022-09-06T13:24:56.190Z,25.51
2022-09-06T13:25:57.999Z,25.53
2022-09-06T13:27:00.054Z,25.52
2022-09-06T13:28:02.530Z,25.49
2022-09-06T13:29:31.207Z,25.61
2022-09-06T13:30:37.260Z,25.60
2022-09-06T13:31:39.557Z,25.53
2022-09-06T13:32:47.639Z,25.51
2022-09-06T13:33:59.512Z,25.52
2022-09-06T13:35:02.135Z,25.60
2022-09-06T13:36:26.878Z,25.63
2022-09-06T13:37:31.664Z,25.62
2022-09-06T13:38:39.618Z,25.63
2022-09-06T13:39:46.453Z,25.59
2022-09-06T13:41:15.783Z,25.60
2022-09-06T13:42:26.073Z,25.67
2022-09-06T13:43:28.780Z,25.66
2022-09-06T13:44:32.644Z,25.61
2022-09-06T13:45:34.605Z,25.64
2022-09-06T13:46:36.509Z,25.62
2022-09-06T13:47:38.334Z,25.62
2022-09-06T13:48:40.501Z,25.63
2022-09-06T13:49:42.373Z,25.63
2022-09-06T13:50:44.215Z,25.56
2022-09-06T13:51:46.050Z,25.59
2022-09-06T13:52:48.107Z,25.56
2022-09-06T13:53:51.019Z,25.60
2022-09-06T13:54:52.803Z,25.56
2022-09-06T13:55:54.627Z,25.63
2022-09-06T13:56:56.994Z,25.58
2022-09-06T13:57:59.257Z,25.61
2022-09-06T13:59:01.352Z,25.64
2022-09-06T14:00:03.650Z,25.63
2022-09-06T14:01:10.036Z,25.64
2022-09-06T14:02:16.003Z,25.64
2022-09-06T14:03:24.859Z,25.64
2022-09-06T14:04:27.007Z,25.59
2022-09-06T14:05:28.804Z,25.52
2022-09-06T14:06:34.721Z,25.66
2022-09-06T14:07:38.364Z,25.66
2022-09-06T14:09:03.427Z,25.63
2022-09-06T14:10:02.016Z,25.69
2022-09-06T14:11:03.850Z,25.69
2022-09-06T14:12:06.988Z,25.67
2022-09-06T14:13:08.943Z,25.65
2022-09-06T14:14:11.365Z,25.66
2022-09-06T14:15:13.520Z,25.68
2022-09-06T14:16:15.435Z,25.60
2022-09-06T14:17:17.859Z,25.68
2022-09-06T14:18:19.686Z,25.68
2022-09-06T14:19:21.556Z,25.69
2022-09-06T14:20:23.363Z,25.65
2022-09-06T14:21:25.379Z,25.70
2022-09-06T14:22:27.143Z,25.69
2022-09-06T14:23:28.992Z,25.70
2022-09-06T14:24:30.844Z,25.66
2022-09-06T14:25:35.678Z,25.70
2022-09-06T14:26:38.807Z,25.65
2022-09-06T14:27:40.821Z,25.64
2022-09-06T14:28:42.615Z,25.73
2022-09-06T14:29:44.460Z,25.67
2022-09-06T14:30:46.368Z,25.66
2022-09-06T14:31:49.029Z,25.72
2022-09-06T14:32:50.821Z,25.62
2022-09-06T14:33:54.191Z,25.73
2022-09-06T14:34:55.914Z,25.65
2022-09-06T14:35:57.682Z,25.63
2022-09-06T14:36:59.498Z,25.64
2022-09-06T14:38:01.567Z,25.73
2022-09-06T14:39:04.049Z,25.73
2022-09-06T14:40:06.935Z,25.72
2022-09-06T14:41:09.700Z,25.67
2022-09-06T14:42:11.670Z,25.72
2022-09-06T14:43:13.672Z,25.71
2022-09-06T14:44:15.489Z,25.68
2022-09-06T14:45:18.406Z,25.72
2022-09-06T14:46:22.207Z,25.71
2022-09-06T14:47:24.141Z,25.72
2022-09-06T14:48:30.272Z,25.71